Time,TemperatureF,DewpointF,PressureIn,WindDirection,WindDirectionDegrees,WindSpeedMPH,WindSpeedGustMPH,Humidity,HourlyPrecipIn,Conditions,Clouds,dailyrainin,SoftwareType,DateUTC
2013-01-19 00:02:00,30.4,27.0,30.50,ESE,115,1.0,4.0,87,0.00,,,0.00,Wunderground v.1.15,2013-01-19 05:02:00,
2013-01-19 00:04:00,30.4,27.0,30.50,ESE,117,0.0,4.0,87,0.00,,,0.00,Wunderground v.1.15,2013-01-19 05:04:00,
2013-01-19 00:10:00,30.4,26.7,30.50,SE,138,0.0,4.0,86,0.00,,,0.00,Wunderground v.1.15,2013-01-19 05:10:00,
2013-01-19 00:14:00,30.4,26.7,30.50,SE,138,0.0,4.0,86,0.00,,,0.00,Wunderground v.1.15,2013-01-19 05:14:00,
2013-01-19 00:16:00,30.5,26.8,30.50,SE,138,1.0,4.0,86,0.00,,,0.00,Wunderground v.1.15,2013-01-19 05:16:00,
2013-01-19 00:22:00,30.5,26.8,30.50,SSE,158,1.0,4.0,86,0.00,,,0.00,Wunderground v.1.15,2013-01-19 05:22:00,
2013-01-19 00:28:00,30.4,26.7,30.49,SSE,158,0.0,4.0,86,0.00,,,0.00,Wunderground v.1.15,2013-01-19 05:28:00,
2013-01-19 00:34:00,30.3,26.9,30.50,SSE,158,0.0,4.0,87,0.00,,,0.00,Wunderground v.1.15,2013-01-19 05:34:00,
2013-01-19 00:40:00,30.2,26.8,30.49,SSE,158,0.0,4.0,87,0.00,,,0.00,Wunderground v.1.15,2013-01-19 05:40:00,
2013-01-19 00:46:00,29.9,26.5,30.49,SSE,158,0.0,4.0,87,0.00,,,0.00,Wunderground v.1.15,2013-01-19 05:46:00,
2013-01-19 00:52:00,29.8,26.4,30.49,SSE,158,0.0,4.0,87,0.00,,,0.00,Wunderground v.1.15,2013-01-19 05:52:00,
2013-01-19 00:58:00,29.6,26.5,30.49,SSE,158,0.0,4.0,88,0.00,,,0.00,Wunderground v.1.15,2013-01-19 05:58:00,
2013-01-19 01:04:00,29.5,26.4,30.49,SSE,158,0.0,4.0,88,0.00,,,0.00,Wunderground v.1.15,2013-01-19 06:04:00,
2013-01-19 01:10:00,29.7,26.6,30.49,SSE,163,0.0,4.0,88,0.00,,,0.00,Wunderground v.1.15,2013-01-19 06:10:00,
2013-01-19 01:16:00,29.7,26.6,30.49,SSE,163,0.0,4.0,88,0.00,,,0.00,Wunderground v.1.15,2013-01-19 06:16:00,
2013-01-19 01:22:00,29.8,26.7,30.49,SSE,163,0.0,4.0,88,0.00,,,0.00,Wunderground v.1.15,2013-01-19 06:22:00,
2013-01-19 01:28:00,29.9,26.5,30.49,SSE,163,0.0,4.0,87,0.00,,,0.00,Wunderground v.1.15,2013-01-19 06:28:00,
2013-01-19 01:34:00,29.9,26.5,30.49,SSE,163,0.0,4.0,87,0.00,,,0.00,Wunderground v.1.15,2013-01-19 06:34:00,
2013-01-19 01:40:00,29.9,26.5,30.49,SSE,163,0.0,4.0,87,0.00,,,0.00,Wunderground v.1.15,2013-01-19 06:40:00,
2013-01-19 01:46:00,29.9,26.2,30.49,SSE,163,0.0,4.0,86,0.00,,,0.00,Wunderground v.1.15,2013-01-19 06:46:00,
2013-01-19 01:52:00,29.9,26.2,30.49,SW,230,1.0,4.0,86,0.00,,,0.00,Wunderground v.1.15,2013-01-19 06:52:00,
2013-01-19 01:58:00,30.0,26.3,30.49,SW,230,1.0,4.0,86,0.00,,,0.00,Wunderground v.1.15,2013-01-19 06:58:00,
2013-01-19 02:04:00,30.0,26.0,30.48,SW,229,1.0,4.0,85,0.00,,,0.00,Wunderground v.1.15,2013-01-19 07:04:00,
2013-01-19 02:10:00,30.0,26.0,30.49,SW,219,1.0,1.0,85,0.00,,,0.00,Wunderground v.1.15,2013-01-19 07:10:00,
2013-01-19 02:16:00,30.1,26.1,30.48,SSW,213,0.0,4.0,85,0.00,,,0.00,Wunderground v.1.15,2013-01-19 07:16:00,
2013-01-19 02:22:00,30.0,26.0,30.48,SSE,148,0.0,4.0,85,0.00,,,0.00,Wunderground v.1.15,2013-01-19 07:22:00,
2013-01-19 02:28:00,29.9,25.9,30.48,South,189,0.0,4.0,85,0.00,,,0.00,Wunderground v.1.15,2013-01-19 07:28:00,
2013-01-19 02:34:00,30.1,25.8,30.48,South,186,1.0,4.0,84,0.00,,,0.00,Wunderground v.1.15,2013-01-19 07:34:00,
2013-01-19 02:40:00,30.1,25.8,30.48,South,186,0.0,4.0,84,0.00,,,0.00,Wunderground v.1.15,2013-01-19 07:40:00,
2013-01-19 02:46:00,30.1,25.8,30.48,South,186,0.0,4.0,84,0.00,,,0.00,Wunderground v.1.15,2013-01-19 07:46:00,
2013-01-19 02:52:00,30.0,25.8,30.48,SSW,200,0.0,4.0,84,0.00,,,0.00,Wunderground v.1.15,2013-01-19 07:52:00,
2013-01-19 02:58:00,29.9,25.7,30.48,SSW,200,1.0,4.0,84,0.00,,,0.00,Wunderground v.1.15,2013-01-19 07:58:00,
2013-01-19 03:04:00,29.9,25.7,30.48,SSW,200,1.0,4.0,84,0.00,,,0.00,Wunderground v.1.15,2013-01-19 08:04:00,
2013-01-19 03:10:00,29.8,25.6,30.48,SSE,163,0.0,4.0,84,0.00,,,0.00,Wunderground v.1.15,2013-01-19 08:10:00,
2013-01-19 03:16:00,29.8,25.6,30.48,SSE,166,1.0,4.0,84,0.00,,,0.00,Wunderground v.1.15,2013-01-19 08:16:00,
2013-01-19 03:22:00,29.8,25.6,30.47,SSE,163,0.0,4.0,84,0.00,,,0.00,Wunderground v.1.15,2013-01-19 08:22:00,
2013-01-19 03:28:00,29.7,25.5,30.47,SSE,163,1.0,4.0,84,0.00,,,0.00,Wunderground v.1.15,2013-01-19 08:28:00,
2013-01-19 03:34:00,29.7,25.5,30.47,SSE,163,1.0,4.0,84,0.00,,,0.00,Wunderground v.1.15,2013-01-19 08:34:00,
2013-01-19 03:40:00,29.7,25.5,30.47,SSE,163,1.0,1.0,84,0.00,,,0.00,Wunderground v.1.15,2013-01-19 08:40:00,
2013-01-19 03:46:00,29.7,25.2,30.47,NW,319,1.0,4.0,83,0.00,,,0.00,Wunderground v.1.15,2013-01-19 08:46:00,
2013-01-19 03:52:00,29.7,25.2,30.47,SSW,212,1.0,4.0,83,0.00,,,0.00,Wunderground v.1.15,2013-01-19 08:52:00,
2013-01-19 03:58:00,29.7,25.2,30.47,SW,232,1.0,4.0,83,0.00,,,0.00,Wunderground v.1.15,2013-01-19 08:58:00,
2013-01-19 04:04:00,29.8,25.3,30.47,WSW,238,1.0,4.0,83,0.00,,,0.00,Wunderground v.1.15,2013-01-19 09:04:00,
2013-01-19 04:10:00,29.8,25.3,30.46,WSW,247,1.0,1.0,83,0.00,,,0.00,Wunderground v.1.15,2013-01-19 09:10:00,
2013-01-19 04:16:00,29.8,25.3,30.47,WSW,247,1.0,4.0,83,0.00,,,0.00,Wunderground v.1.15,2013-01-19 09:16:00,
2013-01-19 04:22:00,29.9,25.1,30.46,WSW,247,1.0,4.0,82,0.00,,,0.00,Wunderground v.1.15,2013-01-19 09:22:00,
2013-01-19 04:28:00,29.7,24.9,30.46,WSW,247,1.0,4.0,82,0.00,,,0.00,Wunderground v.1.15,2013-01-19 09:28:00,
2013-01-19 04:34:00,29.6,25.1,30.46,WSW,247,0.0,4.0,83,0.00,,,0.00,Wunderground v.1.15,2013-01-19 09:34:00,
2013-01-19 04:40:00,29.5,25.0,30.46,WSW,247,0.0,4.0,83,0.00,,,0.00,Wunderground v.1.15,2013-01-19 09:40:00,
2013-01-19 04:46:00,29.3,24.8,30.47,WSW,247,0.0,4.0,83,0.00,,,0.00,Wunderground v.1.15,2013-01-19 09:46:00,
2013-01-19 04:52:00,29.1,24.6,30.46,WSW,247,1.0,4.0,83,0.00,,,0.00,Wunderground v.1.15,2013-01-19 09:52:00,
2013-01-19 04:58:00,29.0,24.8,30.46,WSW,247,1.0,4.0,84,0.00,,,0.00,Wunderground v.1.15,2013-01-19 09:58:00,
2013-01-19 05:04:00,28.9,24.7,30.46,WSW,247,0.0,4.0,84,0.00,,,0.00,Wunderground v.1.15,2013-01-19 10:04:00,
2013-01-19 05:10:00,29.1,24.6,30.46,WSW,247,1.0,4.0,83,0.00,,,0.00,Wunderground v.1.15,2013-01-19 10:10:00,
2013-01-19 05:16:00,29.2,24.7,30.46,WSW,247,2.0,4.0,83,0.00,,,0.00,Wunderground v.1.15,2013-01-19 10:16:00,
2013-01-19 05:22:00,29.2,24.7,30.46,WSW,247,1.0,4.0,83,0.00,,,0.00,Wunderground v.1.15,2013-01-19 10:22:00,
2013-01-19 05:28:00,29.3,24.8,30.46,WSW,243,2.0,4.0,83,0.00,,,0.00,Wunderground v.1.15,2013-01-19 10:28:00,
2013-01-19 05:34:00,29.4,24.9,30.46,WSW,244,2.0,4.0,83,0.00,,,0.00,Wunderground v.1.15,2013-01-19 10:34:00,
2013-01-19 05:40:00,29.4,24.9,30.46,WSW,244,2.0,2.0,83,0.00,,,0.00,Wunderground v.1.15,2013-01-19 10:40:00,
2013-01-19 05:46:00,29.3,24.8,30.46,WSW,246,2.0,4.0,83,0.00,,,0.00,Wunderground v.1.15,2013-01-19 10:46:00,
2013-01-19 05:52:00,29.2,24.7,30.46,WSW,246,2.0,4.0,83,0.00,,,0.00,Wunderground v.1.15,2013-01-19 10:52:00,
2013-01-19 05:58:00,29.2,25.0,30.46,WSW,254,2.0,4.0,84,0.00,,,0.00,Wunderground v.1.15,2013-01-19 10:58:00,
2013-01-19 06:04:00,29.1,24.9,30.46,WSW,252,2.0,4.0,84,0.00,,,0.00,Wunderground v.1.15,2013-01-19 11:04:00,
2013-01-19 06:10:00,29.1,24.9,30.46,West,259,2.0,2.0,84,0.00,,,0.00,Wunderground v.1.15,2013-01-19 11:10:00,
2013-01-19 07:48:00,29.3,24.8,30.45,WSW,250,1.0,4.0,83,0.00,,,0.00,Wunderground v.1.15,2013-01-19 12:48:00,
2013-01-19 07:50:00,29.4,24.9,30.45,WSW,250,1.0,4.0,83,0.00,,,0.00,Wunderground v.1.15,2013-01-19 12:50:00,
2013-01-19 07:52:00,29.5,25.0,30.45,WSW,250,1.0,4.0,83,0.00,,,0.00,Wunderground v.1.15,2013-01-19 12:52:00,
2013-01-19 07:54:00,29.5,25.0,30.45,WSW,250,2.0,4.0,83,0.00,,,0.00,Wunderground v.1.15,2013-01-19 12:54:00,
2013-01-19 08:00:00,30.0,25.2,30.45,WSW,250,2.0,4.0,82,0.00,,,0.00,Wunderground v.1.15,2013-01-19 13:00:00,
2013-01-19 08:06:00,30.5,25.7,30.45,WSW,248,3.0,4.0,82,0.00,,,0.00,Wunderground v.1.15,2013-01-19 13:06:00,
2013-01-19 08:12:00,31.0,25.9,30.45,WSW,247,3.0,4.0,81,0.00,,,0.00,Wunderground v.1.15,2013-01-19 13:12:00,
2013-01-19 08:18:00,31.3,26.1,30.45,WSW,250,3.0,6.0,81,0.00,,,0.00,Wunderground v.1.15,2013-01-19 13:18:00,
2013-01-19 08:24:00,31.6,26.1,30.45,WSW,256,4.0,5.0,80,0.00,,,0.00,Wunderground v.1.15,2013-01-19 13:24:00,
2013-01-19 08:30:00,32.0,26.5,30.44,WSW,241,4.0,6.0,80,0.00,,,0.00,Wunderground v.1.15,2013-01-19 13:30:00,
2013-01-19 08:36:00,32.4,26.9,30.44,WSW,254,4.0,6.0,80,0.00,,,0.00,Wunderground v.1.15,2013-01-19 13:36:00,
2013-01-19 08:42:00,32.8,27.3,30.44,WSW,250,4.0,5.0,80,0.00,,,0.00,Wunderground v.1.15,2013-01-19 13:42:00,
2013-01-19 08:48:00,33.2,27.4,30.44,WSW,250,4.0,5.0,79,0.00,,,0.00,Wunderground v.1.15,2013-01-19 13:48:00,
2013-01-19 08:54:00,33.6,27.5,30.44,WSW,253,4.0,7.0,78,0.00,,,0.00,Wunderground v.1.15,2013-01-19 13:54:00,
2013-01-19 09:00:00,34.1,28.0,30.44,WSW,254,4.0,5.0,78,0.00,,,0.00,Wunderground v.1.15,2013-01-19 14:00:00,
2013-01-19 09:06:00,34.4,27.9,30.44,WSW,253,4.0,5.0,77,0.00,,,0.00,Wunderground v.1.15,2013-01-19 14:06:00,
2013-01-19 09:12:00,35.0,28.5,30.45,WSW,250,4.0,4.0,77,0.00,,,0.00,Wunderground v.1.15,2013-01-19 14:12:00,
2013-01-19 09:18:00,35.5,28.7,30.45,WSW,248,4.0,9.0,76,0.00,,,0.00,Wunderground v.1.15,2013-01-19 14:18:00,
2013-01-19 09:24:00,35.8,29.0,30.45,West,264,5.0,5.0,76,0.00,,,0.00,Wunderground v.1.15,2013-01-19 14:24:00,
2013-01-19 09:30:00,36.1,28.9,30.45,West,259,4.0,4.0,75,0.00,,,0.01,Wunderground v.1.15,2013-01-19 14:30:00,
2013-01-19 09:36:00,36.5,29.0,30.45,SW,236,5.0,6.0,74,0.00,,,0.01,Wunderground v.1.15,2013-01-19 14:36:00,
2013-01-19 09:42:00,36.6,28.8,30.45,WSW,258,5.0,9.0,73,0.00,,,0.01,Wunderground v.1.15,2013-01-19 14:42:00,
2013-01-19 09:48:00,36.9,29.1,30.45,SW,235,6.0,10.0,73,0.00,,,0.01,Wunderground v.1.15,2013-01-19 14:48:00,
2013-01-19 09:54:00,37.2,29.0,30.45,West,267,5.0,5.0,72,0.00,,,0.01,Wunderground v.1.15,2013-01-19 14:54:00,
2013-01-19 10:00:00,37.6,29.4,30.45,WSW,250,4.0,4.0,72,0.00,,,0.01,Wunderground v.1.15,2013-01-19 15:00:00,
2013-01-19 10:06:00,37.9,29.3,30.45,West,264,4.0,4.0,71,0.00,,,0.01,Wunderground v.1.15,2013-01-19 15:06:00,
2013-01-19 10:12:00,37.9,29.3,30.45,WSW,258,5.0,11.0,71,0.00,,,0.02,Wunderground v.1.15,2013-01-19 15:12:00,
2013-01-19 10:18:00,38.3,29.7,30.45,West,269,5.0,11.0,71,0.00,,,0.02,Wunderground v.1.15,2013-01-19 15:18:00,
2013-01-19 10:24:00,38.6,30.0,30.45,WSW,254,4.0,5.0,71,0.00,,,0.02,Wunderground v.1.15,2013-01-19 15:24:00,
2013-01-19 10:30:00,38.9,29.9,30.44,West,260,5.0,5.0,70,0.00,,,0.03,Wunderground v.1.15,2013-01-19 15:30:00,
2013-01-19 10:36:00,39.2,30.2,30.44,WSW,254,5.0,7.0,70,0.00,,,0.03,Wunderground v.1.15,2013-01-19 15:36:00,
2013-01-19 10:42:00,39.5,30.2,30.44,West,262,6.0,6.0,69,0.08,,,0.04,Wunderground v.1.15,2013-01-19 15:42:00,
2013-01-19 10:48:00,40.3,30.9,30.44,WSW,243,4.0,7.0,69,0.05,,,0.04,Wunderground v.1.15,2013-01-19 15:48:00,
2013-01-19 10:54:00,40.6,30.5,30.43,WSW,250,4.0,6.0,67,0.04,,,0.05,Wunderground v.1.15,2013-01-19 15:54:00,
2013-01-19 11:00:00,41.1,30.6,30.42,WSW,256,4.0,4.0,66,0.08,,,0.06,Wunderground v.1.15,2013-01-19 16:00:00,
2013-01-19 11:06:00,41.5,30.6,30.42,West,259,4.0,7.0,65,0.08,,,0.06,Wunderground v.1.15,2013-01-19 16:06:00,
2013-01-19 11:12:00,42.1,31.6,30.42,West,274,4.0,4.0,66,0.05,,,0.06,Wunderground v.1.15,2013-01-19 16:12:00,
2013-01-19 11:18:00,42.6,30.9,30.41,WSW,244,3.0,6.0,63,0.04,,,0.07,Wunderground v.1.15,2013-01-19 16:18:00,
2013-01-19 11:24:00,42.5,30.0,30.41,WSW,252,5.0,7.0,61,0.08,,,0.08,Wunderground v.1.15,2013-01-19 16:24:00,
2013-01-19 11:30:00,42.8,30.7,30.40,WSW,240,6.0,6.0,62,0.08,,,0.08,Wunderground v.1.15,2013-01-19 16:30:00,
2013-01-19 11:36:00,43.8,32.0,30.39,WSW,257,4.0,6.0,63,0.05,,,0.08,Wunderground v.1.15,2013-01-19 16:36:00,
2013-01-19 11:42:00,44.5,32.3,30.39,WSW,252,2.0,5.0,62,0.00,,,0.08,Wunderground v.1.15,2013-01-19 16:42:00,
2013-01-19 11:48:00,44.2,31.6,30.38,WSW,249,3.0,5.0,61,0.00,,,0.08,Wunderground v.1.15,2013-01-19 16:48:00,
2013-01-19 11:54:00,44.1,31.1,30.37,WSW,245,4.0,6.0,60,0.00,,,0.08,Wunderground v.1.15,2013-01-19 16:54:00,
2013-01-19 12:00:00,44.4,31.0,30.37,West,266,4.0,4.0,59,0.00,,,0.08,Wunderground v.1.15,2013-01-19 17:00:00,
2013-01-19 12:06:00,44.4,31.4,30.36,West,265,5.0,6.0,60,0.00,,,0.09,Wunderground v.1.15,2013-01-19 17:06:00,
2013-01-19 12:12:00,44.8,32.6,30.35,WSW,242,4.0,5.0,62,0.09,,,0.10,Wunderground v.1.15,2013-01-19 17:12:00,
2013-01-19 12:18:00,44.9,31.4,30.35,SW,235,3.0,6.0,59,0.07,,,0.10,Wunderground v.1.15,2013-01-19 17:18:00,
2013-01-19 12:24:00,44.7,30.8,30.34,WSW,253,5.0,6.0,58,0.04,,,0.10,Wunderground v.1.15,2013-01-19 17:24:00,
2013-01-19 12:30:00,45.0,31.9,30.34,WSW,242,4.0,4.0,60,0.00,,,0.10,Wunderground v.1.15,2013-01-19 17:30:00,
2013-01-19 12:36:00,45.2,31.7,30.33,WSW,245,3.0,5.0,59,0.00,,,0.11,Wunderground v.1.15,2013-01-19 17:36:00,
2013-01-19 12:42:00,45.5,32.4,30.33,WSW,246,4.0,4.0,60,0.00,,,0.11,Wunderground v.1.15,2013-01-19 17:42:00,
2013-01-19 12:48:00,45.7,32.2,30.32,WSW,251,4.0,6.0,59,0.05,,,0.12,Wunderground v.1.15,2013-01-19 17:48:00,
2013-01-19 12:56:00,46.0,32.5,30.32,WSW,242,4.0,7.0,59,0.05,,,0.12,Wunderground v.1.15,2013-01-19 17:56:00,
2013-01-19 13:02:00,46.4,32.8,30.31,WSW,242,3.0,4.0,59,0.00,,,0.12,Wunderground v.1.15,2013-01-19 18:02:00,
2013-01-19 13:10:00,46.6,33.0,30.31,WSW,250,4.0,7.0,59,0.00,,,0.12,Wunderground v.1.15,2013-01-19 18:10:00,
2013-01-19 13:16:00,46.7,32.7,30.31,West,268,5.0,7.0,58,0.00,,,0.13,Wunderground v.1.15,2013-01-19 18:16:00,
2013-01-19 13:22:00,46.9,32.9,30.30,WSW,247,5.0,6.0,58,0.00,,,0.13,Wunderground v.1.15,2013-01-19 18:22:00,
2013-01-19 13:28:00,47.2,33.2,30.30,WSW,244,4.0,6.0,58,0.00,,,0.13,Wunderground v.1.15,2013-01-19 18:28:00,
2013-01-19 13:34:00,47.4,32.9,30.29,WSW,238,4.0,8.0,57,0.04,,,0.14,Wunderground v.1.15,2013-01-19 18:34:00,
2013-01-19 13:40:00,47.5,33.0,30.29,WSW,244,4.0,4.0,57,0.04,,,0.14,Wunderground v.1.15,2013-01-19 18:40:00,
2013-01-19 13:46:00,47.7,33.2,30.29,WSW,241,5.0,6.0,57,0.04,,,0.14,Wunderground v.1.15,2013-01-19 18:46:00,
2013-01-19 13:52:00,47.9,32.9,30.28,WSW,240,5.0,5.0,56,0.00,,,0.14,Wunderground v.1.15,2013-01-19 18:52:00,
2013-01-19 14:00:00,48.2,32.8,30.28,West,269,5.0,5.0,55,0.00,,,0.14,Wunderground v.1.15,2013-01-19 19:00:00,
2013-01-19 14:06:00,48.3,33.3,30.27,WSW,244,4.0,5.0,56,0.00,,,0.14,Wunderground v.1.15,2013-01-19 19:06:00,
2013-01-19 14:12:00,48.4,34.3,30.27,WSW,240,3.0,5.0,58,0.00,,,0.14,Wunderground v.1.15,2013-01-19 19:12:00,
2013-01-19 14:18:00,48.7,34.1,30.27,WSW,239,3.0,5.0,57,0.00,,,0.14,Wunderground v.1.15,2013-01-19 19:18:00,
2013-01-19 14:24:00,48.9,33.4,30.26,WSW,243,3.0,7.0,55,0.00,,,0.14,Wunderground v.1.15,2013-01-19 19:24:00,
2013-01-19 14:30:00,48.8,33.3,30.26,WSW,247,4.0,4.0,55,0.00,,,0.14,Wunderground v.1.15,2013-01-19 19:30:00,
2013-01-19 14:38:00,49.2,33.3,30.25,WSW,247,4.0,9.0,54,0.00,,,0.15,Wunderground v.1.15,2013-01-19 19:38:00,
2013-01-19 14:44:00,49.5,34.0,30.25,SW,215,4.0,5.0,55,0.00,,,0.15,Wunderground v.1.15,2013-01-19 19:44:00,
2013-01-19 14:50:00,49.4,33.4,30.25,WSW,253,4.0,4.0,54,0.04,,,0.16,Wunderground v.1.15,2013-01-19 19:50:00,
2013-01-19 14:58:00,49.6,34.1,30.25,West,261,4.0,4.0,55,0.04,,,0.16,Wunderground v.1.15,2013-01-19 19:58:00,
2013-01-19 15:04:00,49.9,33.0,30.25,SW,234,4.0,9.0,52,0.00,,,0.16,Wunderground v.1.15,2013-01-19 20:04:00,
2013-01-19 15:10:00,49.9,33.9,30.25,WSW,248,4.0,4.0,54,0.00,,,0.16,Wunderground v.1.15,2013-01-19 20:10:00,
2013-01-19 15:18:00,50.3,32.8,30.24,SW,229,3.0,9.0,51,0.00,,,0.16,Wunderground v.1.15,2013-01-19 20:18:00,
2013-01-19 15:24:00,50.0,33.1,30.24,WSW,243,4.0,9.0,52,0.00,,,0.17,Wunderground v.1.15,2013-01-19 20:24:00,
2013-01-19 15:30:00,50.1,33.1,30.24,WSW,242,3.0,3.0,52,0.00,,,0.17,Wunderground v.1.15,2013-01-19 20:30:00,
2013-01-19 15:36:00,50.1,33.1,30.24,WSW,246,3.0,9.0,52,0.00,,,0.17,Wunderground v.1.15,2013-01-19 20:36:00,
2013-01-19 15:42:00,50.1,33.6,30.23,WSW,252,3.0,9.0,53,0.00,,,0.18,Wunderground v.1.15,2013-01-19 20:42:00,
2013-01-19 15:48:00,50.1,33.6,30.24,WSW,245,3.0,9.0,53,0.00,,,0.18,Wunderground v.1.15,2013-01-19 20:48:00,
2013-01-19 15:54:00,50.2,33.7,30.23,WSW,238,3.0,9.0,53,0.00,,,0.18,Wunderground v.1.15,2013-01-19 20:54:00,
2013-01-19 16:00:00,50.2,33.7,30.23,SW,234,3.0,9.0,53,0.00,,,0.18,Wunderground v.1.15,2013-01-19 21:00:00,
2013-01-19 16:06:00,50.0,33.5,30.23,WSW,243,3.0,9.0,53,0.00,,,0.18,Wunderground v.1.15,2013-01-19 21:06:00,
2013-01-19 16:12:00,49.9,33.0,30.22,SSW,211,4.0,9.0,52,0.00,,,0.18,Wunderground v.1.15,2013-01-19 21:12:00,
2013-01-19 16:18:00,49.9,33.4,30.22,WSW,244,3.0,9.0,53,0.00,,,0.18,Wunderground v.1.15,2013-01-19 21:18:00,
2013-01-19 16:24:00,49.9,33.9,30.22,SW,232,2.0,9.0,54,0.00,,,0.18,Wunderground v.1.15,2013-01-19 21:24:00,
2013-01-19 16:30:00,50.0,33.5,30.22,WSW,248,2.0,9.0,53,0.00,,,0.18,Wunderground v.1.15,2013-01-19 21:30:00,
2013-01-19 16:36:00,49.9,33.9,30.21,WSW,238,2.0,9.0,54,0.00,,,0.18,Wunderground v.1.15,2013-01-19 21:36:00,
2013-01-19 16:42:00,49.4,33.4,30.22,WSW,240,1.0,9.0,54,0.00,,,0.19,Wunderground v.1.15,2013-01-19 21:42:00,
2013-01-19 16:48:00,49.2,33.7,30.22,WSW,240,2.0,9.0,55,0.00,,,0.19,Wunderground v.1.15,2013-01-19 21:48:00,
2013-01-19 16:54:00,48.9,33.9,30.21,WSW,240,2.0,9.0,56,0.00,,,0.19,Wunderground v.1.15,2013-01-19 21:54:00,
2013-01-19 17:00:00,48.7,33.7,30.21,WSW,240,1.0,9.0,56,0.00,,,0.19,Wunderground v.1.15,2013-01-19 22:00:00,
2013-01-19 17:10:00,48.0,33.9,30.21,WSW,240,1.0,9.0,58,0.00,,,0.19,Wunderground v.1.15,2013-01-19 22:10:00,
2013-01-19 17:20:00,47.4,33.8,30.21,WSW,240,0.0,9.0,59,0.00,,,0.19,Wunderground v.1.15,2013-01-19 22:20:00,
2013-01-19 17:26:00,47.0,33.8,30.21,WSW,240,0.0,9.0,60,0.00,,,0.19,Wunderground v.1.15,2013-01-19 22:26:00,
2013-01-19 17:32:00,46.6,33.4,30.21,WSW,240,1.0,9.0,60,0.00,,,0.19,Wunderground v.1.15,2013-01-19 22:32:00,
2013-01-19 17:38:00,46.3,33.6,30.21,WSW,240,1.0,9.0,61,0.00,,,0.19,Wunderground v.1.15,2013-01-19 22:38:00,
2013-01-19 17:44:00,46.0,33.3,30.21,WSW,240,1.0,9.0,61,0.00,,,0.19,Wunderground v.1.15,2013-01-19 22:44:00,
2013-01-19 17:50:00,45.7,33.4,30.20,WSW,240,1.0,1.0,62,0.00,,,0.19,Wunderground v.1.15,2013-01-19 22:50:00,
2013-01-19 17:56:00,45.5,33.2,30.20,WSW,240,0.0,9.0,62,0.00,,,0.19,Wunderground v.1.15,2013-01-19 22:56:00,
2013-01-19 18:02:00,45.2,33.3,30.20,WSW,240,1.0,9.0,63,0.00,,,0.19,Wunderground v.1.15,2013-01-19 23:02:00,
2013-01-19 18:08:00,44.9,33.5,30.20,WSW,240,0.0,9.0,64,0.00,,,0.20,Wunderground v.1.15,2013-01-19 23:08:00,
2013-01-19 18:14:00,44.4,33.4,30.20,WSW,240,0.0,9.0,65,0.00,,,0.20,Wunderground v.1.15,2013-01-19 23:14:00,
2013-01-19 18:20:00,44.1,33.1,30.20,WSW,240,0.0,9.0,65,0.00,,,0.20,Wunderground v.1.15,2013-01-19 23:20:00,
2013-01-19 18:26:00,43.9,32.9,30.20,WSW,240,1.0,9.0,65,0.00,,,0.20,Wunderground v.1.15,2013-01-19 23:26:00,
2013-01-19 18:32:00,43.8,32.8,30.20,WSW,240,1.0,9.0,65,0.00,,,0.20,Wunderground v.1.15,2013-01-19 23:32:00,
2013-01-19 18:38:00,43.6,33.0,30.20,WSW,240,1.0,9.0,66,0.00,,,0.20,Wunderground v.1.15,2013-01-19 23:38:00,
2013-01-19 18:44:00,43.3,32.7,30.20,WSW,240,0.0,9.0,66,0.00,,,0.20,Wunderground v.1.15,2013-01-19 23:44:00,
2013-01-19 18:50:00,43.1,32.5,30.20,WSW,240,0.0,9.0,66,0.00,,,0.20,Wunderground v.1.15,2013-01-19 23:50:00,
2013-01-19 18:56:00,42.9,32.7,30.20,WSW,240,1.0,9.0,67,0.00,,,0.20,Wunderground v.1.15,2013-01-19 23:56:00,
2013-01-19 19:02:00,42.6,32.8,30.20,WSW,240,0.0,2.0,68,0.00,,,0.20,Wunderground v.1.15,2013-01-20 00:02:00,
2013-01-19 19:08:00,42.3,32.5,30.20,WSW,240,0.0,9.0,68,0.00,,,0.20,Wunderground v.1.15,2013-01-20 00:08:00,
2013-01-19 19:14:00,42.1,32.7,30.20,WSW,240,0.0,9.0,69,0.00,,,0.20,Wunderground v.1.15,2013-01-20 00:14:00,
2013-01-19 19:20:00,42.0,32.6,30.20,WSW,240,1.0,9.0,69,0.00,,,0.20,Wunderground v.1.15,2013-01-20 00:20:00,
2013-01-19 19:26:00,42.0,32.6,30.20,WSW,240,1.0,9.0,69,0.00,,,0.20,Wunderground v.1.15,2013-01-20 00:26:00,
2013-01-19 19:32:00,42.0,32.2,30.20,WSW,240,2.0,9.0,68,0.00,,,0.20,Wunderground v.1.15,2013-01-20 00:32:00,
2013-01-19 19:38:00,42.0,32.2,30.20,WSW,240,1.0,9.0,68,0.00,,,0.20,Wunderground v.1.15,2013-01-20 00:38:00,
2013-01-19 19:44:00,42.0,32.2,30.20,WSW,240,2.0,9.0,68,0.00,,,0.20,Wunderground v.1.15,2013-01-20 00:44:00,
2013-01-19 19:50:00,42.1,32.3,30.20,WSW,240,2.0,9.0,68,0.00,,,0.20,Wunderground v.1.15,2013-01-20 00:50:00,
2013-01-19 19:56:00,42.0,32.2,30.20,WSW,240,2.0,9.0,68,0.00,,,0.20,Wunderground v.1.15,2013-01-20 00:56:00,
2013-01-19 20:01:00,41.9,31.7,30.20,WSW,240,1.0,9.0,67,0.00,,,0.20,Wunderground v.1.15,2013-01-20 01:01:00,
2013-01-19 20:08:00,41.7,31.5,30.20,WSW,240,1.0,9.0,67,0.00,,,0.20,Wunderground v.1.15,2013-01-20 01:08:00,
2013-01-19 20:18:00,41.6,31.4,30.19,WSW,242,2.0,9.0,67,0.00,,,0.20,Wunderground v.1.15,2013-01-20 01:18:00,
2013-01-19 20:26:00,41.7,31.5,30.19,WSW,242,2.0,9.0,67,0.00,,,0.20,Wunderground v.1.15,2013-01-20 01:26:00,
2013-01-19 20:32:00,41.6,31.4,30.19,WSW,242,2.0,9.0,67,0.00,,,0.20,Wunderground v.1.15,2013-01-20 01:32:00,
2013-01-19 20:38:00,41.7,31.5,30.19,WSW,242,2.0,9.0,67,0.00,,,0.20,Wunderground v.1.15,2013-01-20 01:38:00,
2013-01-19 20:44:00,41.6,31.4,30.18,WSW,244,2.0,9.0,67,0.00,,,0.20,Wunderground v.1.15,2013-01-20 01:44:00,
2013-01-19 20:50:00,41.6,31.4,30.18,WSW,244,2.0,9.0,67,0.00,,,0.20,Wunderground v.1.15,2013-01-20 01:50:00,
2013-01-19 20:56:00,41.5,31.0,30.18,WSW,244,2.0,9.0,66,0.00,,,0.20,Wunderground v.1.15,2013-01-20 01:56:00,
2013-01-19 21:02:00,41.4,31.3,30.18,WSW,244,1.0,9.0,67,0.00,,,0.20,Wunderground v.1.15,2013-01-20 02:02:00,
2013-01-19 21:08:00,41.1,31.0,30.18,WSW,244,1.0,9.0,67,0.00,,,0.20,Wunderground v.1.15,2013-01-20 02:08:00,
2013-01-19 21:14:00,41.1,31.0,30.17,WSW,244,2.0,9.0,67,0.00,,,0.20,Wunderground v.1.15,2013-01-20 02:14:00,
2013-01-19 21:20:00,41.1,31.0,30.17,WSW,244,2.0,9.0,67,0.00,,,0.20,Wunderground v.1.15,2013-01-20 02:20:00,
2013-01-19 21:26:00,41.0,30.9,30.17,WSW,244,2.0,9.0,67,0.00,,,0.20,Wunderground v.1.15,2013-01-20 02:26:00,
2013-01-19 21:32:00,41.0,30.9,30.17,WSW,244,2.0,9.0,67,0.00,,,0.20,Wunderground v.1.15,2013-01-20 02:32:00,
2013-01-19 21:38:00,40.9,30.8,30.17,WSW,245,2.0,9.0,67,0.00,,,0.20,Wunderground v.1.15,2013-01-20 02:38:00,
2013-01-19 21:44:00,41.0,30.9,30.16,WSW,244,2.0,9.0,67,0.00,,,0.20,Wunderground v.1.15,2013-01-20 02:44:00,
2013-01-19 21:50:00,41.0,30.9,30.16,WSW,244,1.0,9.0,67,0.00,,,0.20,Wunderground v.1.15,2013-01-20 02:50:00,
2013-01-19 21:56:00,41.1,30.6,30.16,WSW,245,1.0,9.0,66,0.00,,,0.20,Wunderground v.1.15,2013-01-20 02:56:00,
2013-01-19 22:02:00,41.1,30.6,30.16,WSW,245,2.0,9.0,66,0.00,,,0.20,Wunderground v.1.15,2013-01-20 03:02:00,
2013-01-19 22:08:00,41.3,30.8,30.16,WSW,245,2.0,9.0,66,0.00,,,0.20,Wunderground v.1.15,2013-01-20 03:08:00,
2013-01-19 22:14:00,41.4,30.5,30.16,WSW,242,3.0,9.0,65,0.00,,,0.20,Wunderground v.1.15,2013-01-20 03:14:00,
2013-01-19 22:20:00,41.3,30.4,30.16,WSW,247,3.0,3.0,65,0.00,,,0.20,Wunderground v.1.15,2013-01-20 03:20:00,
2013-01-19 22:26:00,41.1,30.6,30.15,WSW,247,2.0,9.0,66,0.00,,,0.20,Wunderground v.1.15,2013-01-20 03:26:00,
2013-01-19 22:32:00,40.9,30.4,30.15,WSW,247,2.0,9.0,66,0.00,,,0.20,Wunderground v.1.15,2013-01-20 03:32:00,
2013-01-19 22:38:00,40.7,30.2,30.15,WSW,246,2.0,9.0,66,0.00,,,0.20,Wunderground v.1.15,2013-01-20 03:38:00,
2013-01-19 22:44:00,40.5,30.4,30.15,WSW,246,3.0,9.0,67,0.00,,,0.20,Wunderground v.1.15,2013-01-20 03:44:00,
2013-01-19 22:50:00,40.4,30.3,30.14,WSW,246,3.0,9.0,67,0.00,,,0.20,Wunderground v.1.15,2013-01-20 03:50:00,
2013-01-19 22:56:00,40.1,30.4,30.14,WSW,246,2.0,9.0,68,0.00,,,0.20,Wunderground v.1.15,2013-01-20 03:56:00,
2013-01-19 23:04:00,39.8,30.1,30.14,WSW,246,2.0,9.0,68,0.00,,,0.00,Wunderground v.1.15,2013-01-20 04:04:00,
2013-01-19 23:10:00,39.6,30.3,30.13,WSW,246,2.0,9.0,69,0.00,,,0.00,Wunderground v.1.15,2013-01-20 04:10:00,
2013-01-19 23:16:00,39.4,30.1,30.12,WSW,246,2.0,9.0,69,0.00,,,0.00,Wunderground v.1.15,2013-01-20 04:16:00,
2013-01-19 23:22:00,39.3,30.0,30.12,WSW,246,2.0,9.0,69,0.00,,,0.00,Wunderground v.1.15,2013-01-20 04:22:00,
2013-01-19 23:28:00,39.3,30.0,30.12,WSW,246,2.0,9.0,69,0.00,,,0.00,Wunderground v.1.15,2013-01-20 04:28:00,
2013-01-19 23:33:00,39.3,30.0,30.11,WSW,246,3.0,9.0,69,0.00,,,0.00,Wunderground v.1.15,2013-01-20 04:33:00,
2013-01-19 23:40:00,39.4,30.1,30.11,WSW,257,3.0,9.0,69,0.00,,,0.00,Wunderground v.1.15,2013-01-20 04:40:00,
2013-01-19 23:46:00,39.6,29.9,30.11,WSW,250,4.0,9.0,68,0.00,,,0.00,Wunderground v.1.15,2013-01-20 04:46:00,
2013-01-19 23:52:00,39.7,30.0,30.11,WSW,248,4.0,9.0,68,0.00,,,0.00,Wunderground v.1.15,2013-01-20 04:52:00,
2013-01-19 23:58:00,39.9,30.2,30.11,WSW,249,4.0,9.0,68,0.00,,,0.00,Wunderground v.1.15,2013-01-20 04:58:00,